createdAt,value
2018-05-19T00:02:13.919Z,11.20
2018-05-19T00:04:41.416Z,10.40
2018-05-19T00:07:09.700Z,11.20
2018-05-19T00:09:37.214Z,13.20
2018-05-19T00:12:05.497Z,11.40
2018-05-19T00:14:32.999Z,11.50
2018-05-19T00:17:00.558Z,11.60
2018-05-19T00:19:29.210Z,11.50
2018-05-19T00:21:56.718Z,11.40
2018-05-19T00:24:24.236Z,11.20
2018-05-19T00:26:51.752Z,12.50
2018-05-19T00:29:19.678Z,11.70
2018-05-19T00:34:16.824Z,11.60
2018-05-19T00:39:13.853Z,11.60
2018-05-19T00:44:10.235Z,11.30
2018-05-19T00:46:38.134Z,11.60
2018-05-19T00:49:06.420Z,11.30
2018-05-19T00:51:33.939Z,11.20
2018-05-19T00:54:01.456Z,11.40
2018-05-19T00:56:29.387Z,11.20
2018-05-19T00:58:57.659Z,11.20
2018-05-19T01:01:25.942Z,11.30
2018-05-19T01:03:53.477Z,11.00
2018-05-19T01:06:22.128Z,11.10
2018-05-19T01:08:49.634Z,10.30
2018-05-19T01:11:17.916Z,11.00
2018-05-19T01:13:45.814Z,11.40
2018-05-19T01:16:14.102Z,11.00
2018-05-19T01:18:42.012Z,10.50
2018-05-19T01:21:10.663Z,11.00
2018-05-19T01:23:38.170Z,11.30
2018-05-19T01:26:06.463Z,11.00
2018-05-19T01:28:34.388Z,11.10
2018-05-19T01:31:01.905Z,11.10
2018-05-19T01:33:29.450Z,11.00
2018-05-19T01:35:57.720Z,10.90
2018-05-19T01:38:26.011Z,10.90
2018-05-19T01:40:53.529Z,11.60
2018-05-19T01:43:21.287Z,11.30
2018-05-19T01:45:49.195Z,11.10
2018-05-19T01:48:17.099Z,12.10
2018-05-19T01:50:44.660Z,10.40
2018-05-19T01:53:12.941Z,10.70
2018-05-19T01:55:40.451Z,11.10
2018-05-19T01:58:08.746Z,10.80
2018-05-19T02:00:36.269Z,11.90
2018-05-19T02:03:04.165Z,10.70
2018-05-19T02:05:32.451Z,11.00
2018-05-19T02:07:59.957Z,10.70
2018-05-19T02:10:27.839Z,10.10
2018-05-19T02:12:55.755Z,10.70
2018-05-19T02:15:23.243Z,10.90
2018-05-19T02:17:51.544Z,10.60
2018-05-19T02:20:19.445Z,10.70
2018-05-19T02:22:47.362Z,10.30
2018-05-19T02:25:14.867Z,10.30
2018-05-19T02:27:43.137Z,10.50
2018-05-19T02:30:11.424Z,10.50
2018-05-19T02:32:39.333Z,10.70
2018-05-19T02:35:06.856Z,10.80
2018-05-19T02:37:34.391Z,10.90
2018-05-19T02:40:02.703Z,10.70
2018-05-19T02:42:30.624Z,11.00
2018-05-19T02:44:58.130Z,10.90
2018-05-19T02:47:25.653Z,11.40
2018-05-19T02:49:53.933Z,11.10
2018-05-19T02:52:22.579Z,11.20
2018-05-19T02:54:50.087Z,11.80
2018-05-19T02:57:18.364Z,11.40
2018-05-19T02:59:45.879Z,13.80
2018-05-19T03:02:13.395Z,10.70
2018-05-19T03:04:40.906Z,11.40
2018-05-19T03:07:09.944Z,11.40
2018-05-19T03:09:37.849Z,10.80
2018-05-19T03:12:05.362Z,11.20
2018-05-19T03:14:33.652Z,11.40
2018-05-19T03:17:01.163Z,11.70
2018-05-19T03:19:30.193Z,11.20
2018-05-19T03:24:27.700Z,11.10
2018-05-19T03:26:55.978Z,10.90
2018-05-19T03:29:23.628Z,11.10
2018-05-19T03:31:51.122Z,10.80
2018-05-19T03:34:19.412Z,10.60
2018-05-19T03:36:47.483Z,10.30
2018-05-19T03:39:15.782Z,10.50
2018-05-19T03:41:44.476Z,10.40
2018-05-19T03:44:12.778Z,10.50
2018-05-19T03:46:41.433Z,10.50
2018-05-19T03:51:37.814Z,10.50
2018-05-19T03:54:05.329Z,11.70
2018-05-19T03:56:33.657Z,10.60
2018-05-19T04:01:46.698Z,10.80
2018-05-19T04:04:14.605Z,11.40
2018-05-19T04:09:11.749Z,10.70
2018-05-19T04:11:39.274Z,11.20
2018-05-19T04:14:06.805Z,10.60
2018-05-19T04:16:35.092Z,10.50
2018-05-19T04:19:03.804Z,10.60
2018-05-19T04:21:31.716Z,10.60
2018-05-19T04:24:00.474Z,10.40
2018-05-19T04:26:27.969Z,10.90
2018-05-19T04:28:55.479Z,9.10
2018-05-19T04:31:23.401Z,10.90
2018-05-19T04:33:50.929Z,10.60
2018-05-19T04:36:18.711Z,11.00
2018-05-19T04:38:46.667Z,10.50
2018-05-19T04:41:14.178Z,10.90
2018-05-19T04:43:42.463Z,10.50
2018-05-19T04:46:09.972Z,9.80
2018-05-19T04:48:38.842Z,10.50
2018-05-19T04:51:06.353Z,11.60
2018-05-19T04:53:34.635Z,10.60
2018-05-19T04:56:02.979Z,10.60
2018-05-19T04:58:30.501Z,10.00
2018-05-19T05:00:58.044Z,10.20
2018-05-19T05:03:25.962Z,10.70
2018-05-19T05:05:53.484Z,11.00
2018-05-19T05:08:21.014Z,10.50
2018-05-19T05:10:50.592Z,11.00
2018-05-19T05:13:19.073Z,11.20
2018-05-19T05:15:47.098Z,11.50
2018-05-19T05:18:15.008Z,11.20
2018-05-19T05:20:42.911Z,11.30
2018-05-19T05:23:11.224Z,11.40
2018-05-19T05:25:39.866Z,11.50
2018-05-19T05:28:07.800Z,11.40
2018-05-19T05:30:38.239Z,12.30
2018-05-19T05:33:05.773Z,12.20
2018-05-19T05:35:33.269Z,10.70
2018-05-19T05:38:00.797Z,12.20
2018-05-19T05:40:28.298Z,11.90
2018-05-19T05:42:56.587Z,12.60
2018-05-19T05:45:24.083Z,12.80
2018-05-19T05:47:51.582Z,13.30
2018-05-19T05:50:19.117Z,11.70
2018-05-19T05:52:46.629Z,13.20
2018-05-19T05:55:14.206Z,12.90
2018-05-19T05:57:41.717Z,13.10
2018-05-19T06:00:09.620Z,11.50
2018-05-19T06:02:37.127Z,13.50
2018-05-19T06:05:04.660Z,12.80
2018-05-19T06:07:32.173Z,13.90
2018-05-19T06:10:00.107Z,13.70
2018-05-19T06:12:27.623Z,14.50
2018-05-19T06:14:58.190Z,14.10
2018-05-19T06:17:25.704Z,14.30
2018-05-19T06:19:53.971Z,14.70
2018-05-19T06:22:22.249Z,15.00
2018-05-19T06:24:50.532Z,15.20
2018-05-19T06:27:18.076Z,15.60
2018-05-19T06:29:45.980Z,15.60
2018-05-19T06:32:13.505Z,15.80
2018-05-19T06:34:41.406Z,16.00
2018-05-19T06:37:09.337Z,16.30
2018-05-19T06:39:37.245Z,15.30
2018-05-19T06:42:04.770Z,17.50
2018-05-19T06:44:33.066Z,16.90
2018-05-19T06:47:00.568Z,17.40
2018-05-19T06:49:28.096Z,18.10
2018-05-19T06:51:55.614Z,17.70
2018-05-19T06:54:23.573Z,17.90
2018-05-19T06:56:51.088Z,18.40
2018-05-19T06:59:18.629Z,19.00
2018-05-19T07:01:46.144Z,18.80
2018-05-19T07:04:13.688Z,18.80
2018-05-19T07:06:42.072Z,18.30
2018-05-19T07:09:09.585Z,18.80
2018-05-19T07:11:37.490Z,18.30
2018-05-19T07:14:05.396Z,18.90
2018-05-19T07:16:32.914Z,18.50
2018-05-19T07:19:00.410Z,18.50
2018-05-19T07:21:28.708Z,18.20
2018-05-19T07:23:56.986Z,18.20
2018-05-19T07:26:24.517Z,18.60
2018-05-19T07:28:52.024Z,17.10
2018-05-19T07:31:19.554Z,18.30
2018-05-19T07:33:47.828Z,18.50
2018-05-19T07:36:15.784Z,18.60
2018-05-19T07:38:43.680Z,18.60
2018-05-19T07:41:11.581Z,19.50
2018-05-19T07:43:39.105Z,18.80
2018-05-19T07:46:07.000Z,18.60
2018-05-19T07:48:34.809Z,19.40
2018-05-19T07:51:02.342Z,19.70
2018-05-19T07:53:29.876Z,19.00
2018-05-19T07:55:57.790Z,19.20
2018-05-19T07:58:25.751Z,18.70
2018-05-19T08:00:53.259Z,18.40
2018-05-19T08:03:20.773Z,18.90
2018-05-19T08:05:48.698Z,19.80
2018-05-19T08:08:16.209Z,18.50
2018-05-19T08:10:44.498Z,19.40
2018-05-19T08:13:12.012Z,18.60
2018-05-19T08:15:39.825Z,19.00
2018-05-19T08:18:07.333Z,19.40
2018-05-19T08:20:34.858Z,19.80
2018-05-19T08:23:03.142Z,20.00
2018-05-19T08:25:30.679Z,19.20
2018-05-19T08:27:58.959Z,20.80
2018-05-19T08:30:26.493Z,20.00
2018-05-19T08:32:54.025Z,19.90
2018-05-19T08:35:22.307Z,20.20
2018-05-19T08:37:50.621Z,20.80
2018-05-19T08:40:18.124Z,21.50
2018-05-19T08:42:45.643Z,20.50
2018-05-19T08:45:13.906Z,20.70
2018-05-19T08:47:41.437Z,19.70
2018-05-19T08:50:08.936Z,22.10
2018-05-19T08:52:36.478Z,22.00
2018-05-19T08:55:04.006Z,20.00
2018-05-19T08:57:31.509Z,21.90
2018-05-19T09:00:00.806Z,20.60
2018-05-19T09:02:28.321Z,20.10
2018-05-19T09:04:56.607Z,21.30
2018-05-19T09:07:24.107Z,21.30
2018-05-19T09:09:52.403Z,22.20
2018-05-19T09:12:20.680Z,22.60
2018-05-19T09:14:48.219Z,22.20
2018-05-19T09:17:16.496Z,22.60
2018-05-19T09:19:44.414Z,23.70
2018-05-19T09:22:11.947Z,23.80
2018-05-19T09:24:40.294Z,23.90
2018-05-19T09:27:07.880Z,24.70
2018-05-19T09:29:36.176Z,24.10
2018-05-19T09:32:03.690Z,25.10
2018-05-19T09:34:31.215Z,23.10
2018-05-19T09:36:58.753Z,25.20
2018-05-19T09:39:26.255Z,24.60
2018-05-19T09:41:54.222Z,23.80
2018-05-19T09:44:21.735Z,23.10
2018-05-19T09:46:49.263Z,24.80
2018-05-19T09:49:17.172Z,24.50
2018-05-19T09:51:45.068Z,24.50
2018-05-19T09:54:13.367Z,23.90
2018-05-19T09:56:40.881Z,23.60
2018-05-19T09:59:08.390Z,24.50
2018-05-19T10:01:35.897Z,23.60
2018-05-19T10:04:03.415Z,24.20
2018-05-19T10:06:31.684Z,24.10
2018-05-19T10:08:59.228Z,23.40
2018-05-19T10:11:27.175Z,23.90
2018-05-19T10:13:54.675Z,24.70
2018-05-19T10:16:22.191Z,23.90
2018-05-19T10:18:49.692Z,24.60
2018-05-19T10:21:17.220Z,25.30
2018-05-19T10:23:44.726Z,25.00
2018-05-19T10:26:13.071Z,24.70
2018-05-19T10:28:42.091Z,24.30
2018-05-19T10:31:10.379Z,23.80
2018-05-19T10:33:38.654Z,23.60
2018-05-19T10:36:06.926Z,24.00
2018-05-19T10:38:35.232Z,24.70
2018-05-19T10:41:02.742Z,25.00
2018-05-19T10:43:30.264Z,24.60
2018-05-19T10:45:58.168Z,25.70
2018-05-19T10:48:25.689Z,24.50
2018-05-19T10:50:53.188Z,25.10
2018-05-19T10:53:20.703Z,25.40
2018-05-19T10:55:48.995Z,26.30
2018-05-19T10:58:17.294Z,26.50
2018-05-19T11:00:44.799Z,26.60
2018-05-19T11:03:12.326Z,25.60
2018-05-19T11:05:40.598Z,24.90
2018-05-19T11:08:08.115Z,24.50
2018-05-19T11:10:35.622Z,25.90
2018-05-19T11:13:03.548Z,24.60
2018-05-19T11:15:31.088Z,24.20
2018-05-19T11:17:58.596Z,23.10
2018-05-19T11:20:26.120Z,23.50
2018-05-19T11:22:54.800Z,24.10
2018-05-19T11:25:22.358Z,25.30
2018-05-19T11:27:49.859Z,23.30
2018-05-19T11:30:17.806Z,24.40
2018-05-19T11:32:46.682Z,23.80
2018-05-19T11:35:14.233Z,24.40
2018-05-19T11:37:41.797Z,24.30
2018-05-19T11:40:09.324Z,24.10
2018-05-19T11:42:37.600Z,24.50
2018-05-19T11:45:05.886Z,25.40
2018-05-19T11:47:33.547Z,25.90
2018-05-19T11:50:01.915Z,26.10
2018-05-19T11:52:30.244Z,26.60
2018-05-19T11:54:58.472Z,26.60
2018-05-19T11:57:27.173Z,26.10
2018-05-19T11:59:54.929Z,27.60
2018-05-19T12:02:22.460Z,24.90
2018-05-19T12:04:50.748Z,25.00
2018-05-19T12:07:19.039Z,24.60
2018-05-19T12:09:47.338Z,24.20
2018-05-19T12:12:14.852Z,24.10
2018-05-19T12:14:43.086Z,24.30
2018-05-19T12:17:11.354Z,25.20
2018-05-19T12:19:38.877Z,25.70
2018-05-19T12:22:07.143Z,24.90
2018-05-19T12:24:35.427Z,24.40
2018-05-19T12:27:03.699Z,23.90
2018-05-19T12:29:31.984Z,23.70
2018-05-19T12:32:00.269Z,23.50
2018-05-19T12:34:27.783Z,24.30
2018-05-19T12:36:55.290Z,23.80
2018-05-19T12:39:23.592Z,24.50
2018-05-19T12:41:51.124Z,25.00
2018-05-19T12:44:19.389Z,24.20
2018-05-19T12:46:47.306Z,23.90
2018-05-19T12:49:14.833Z,23.90
2018-05-19T12:51:42.743Z,24.20
2018-05-19T12:54:10.263Z,24.10
2018-05-19T12:56:37.838Z,21.50
2018-05-19T12:59:05.347Z,23.50
2018-05-19T13:01:34.347Z,23.70
2018-05-19T13:04:01.862Z,23.50
2018-05-19T13:06:29.379Z,23.00
2018-05-19T13:08:57.675Z,22.30
2018-05-19T13:11:25.563Z,21.80
2018-05-19T13:13:53.102Z,21.80
2018-05-19T13:16:20.609Z,21.10
2018-05-19T13:18:48.884Z,20.80
2018-05-19T13:21:17.176Z,20.40
2018-05-19T13:23:44.681Z,19.70
2018-05-19T13:26:12.238Z,20.20
2018-05-19T13:28:39.743Z,20.80
2018-05-19T13:31:07.270Z,19.80
2018-05-19T13:33:34.789Z,20.10
2018-05-19T13:36:03.079Z,20.50
2018-05-19T13:38:30.581Z,20.60
2018-05-19T13:40:58.845Z,20.80
2018-05-19T13:43:26.369Z,20.80
2018-05-19T13:45:54.643Z,21.00
2018-05-19T13:48:22.927Z,21.00
2018-05-19T13:50:50.443Z,20.70
2018-05-19T13:53:17.967Z,21.20
2018-05-19T13:55:45.484Z,20.90
2018-05-19T13:58:13.765Z,20.90
2018-05-19T14:00:42.040Z,21.00
2018-05-19T14:03:09.962Z,21.50
2018-05-19T14:05:38.245Z,20.80
2018-05-19T14:08:06.135Z,20.70
2018-05-19T14:10:33.675Z,21.10
2018-05-19T14:13:01.208Z,20.70
2018-05-19T14:15:29.886Z,20.50
2018-05-19T14:17:57.382Z,19.60
2018-05-19T14:20:24.909Z,20.40
2018-05-19T14:22:53.199Z,20.30
2018-05-19T14:25:20.721Z,21.00
2018-05-19T14:27:48.997Z,20.30
2018-05-19T14:30:17.284Z,20.30
2018-05-19T14:32:44.813Z,19.80
2018-05-19T14:35:13.133Z,20.30
2018-05-19T14:37:40.666Z,20.40
2018-05-19T14:40:08.955Z,20.40
2018-05-19T14:42:36.475Z,20.50
2018-05-19T14:45:04.011Z,19.50
2018-05-19T14:47:31.543Z,19.60
2018-05-19T14:49:59.059Z,19.70
2018-05-19T14:52:26.579Z,19.90
2018-05-19T14:54:54.111Z,20.50
2018-05-19T14:57:21.651Z,20.50
2018-05-19T14:59:49.944Z,20.30
2018-05-19T15:02:17.490Z,21.50
2018-05-19T15:04:45.399Z,20.10
2018-05-19T15:07:12.921Z,20.40
2018-05-19T15:09:41.234Z,20.00
2018-05-19T15:12:08.777Z,19.80
2018-05-19T15:14:37.068Z,20.00
2018-05-19T15:17:04.580Z,19.10
2018-05-19T15:19:32.860Z,19.90
2018-05-19T15:22:01.168Z,19.80
2018-05-19T15:24:28.703Z,20.40
2018-05-19T15:26:56.973Z,19.80
2018-05-19T15:29:24.904Z,19.80
2018-05-19T15:31:52.422Z,18.80
2018-05-19T15:34:19.940Z,18.80
2018-05-19T15:36:47.455Z,20.10
2018-05-19T15:39:14.980Z,20.20
2018-05-19T15:41:42.960Z,20.00
2018-05-19T15:44:11.239Z,19.50
2018-05-19T15:46:39.544Z,19.50
2018-05-19T15:49:07.059Z,19.20
2018-05-19T15:51:34.600Z,19.70
2018-05-19T15:54:02.117Z,19.10
2018-05-19T15:56:29.703Z,20.10
2018-05-19T15:58:57.211Z,19.50
2018-05-19T16:01:25.531Z,19.10
2018-05-19T16:03:53.074Z,19.30
2018-05-19T16:06:21.344Z,19.10
2018-05-19T16:08:49.356Z,20.10
2018-05-19T16:11:17.199Z,19.10
2018-05-19T16:13:44.740Z,18.00
2018-05-19T16:16:12.260Z,19.20
2018-05-19T16:18:39.783Z,18.20
2018-05-19T16:21:07.321Z,18.50
2018-05-19T16:23:34.850Z,19.00
2018-05-19T16:26:03.110Z,18.60
2018-05-19T16:28:30.634Z,16.80
2018-05-19T16:30:58.201Z,18.30
2018-05-19T16:33:25.731Z,18.70
2018-05-19T16:35:53.274Z,19.10
2018-05-19T16:38:21.581Z,18.80
2018-05-19T16:40:50.039Z,18.70
2018-05-19T16:43:18.327Z,18.70
2018-05-19T16:45:45.852Z,18.50
2018-05-19T16:48:14.146Z,18.60
2018-05-19T16:50:42.439Z,18.60
2018-05-19T16:53:10.131Z,19.00
2018-05-19T16:55:37.656Z,19.90
2018-05-19T16:58:05.576Z,18.30
2018-05-19T17:00:33.080Z,17.90
2018-05-19T17:03:00.592Z,19.50
2018-05-19T17:05:29.632Z,18.30
2018-05-19T17:07:57.192Z,18.10
2018-05-19T17:10:25.457Z,18.20
2018-05-19T17:12:53.758Z,18.10
2018-05-19T17:15:22.076Z,18.10
2018-05-19T17:17:51.114Z,18.00
2018-05-19T17:20:19.055Z,17.00
2018-05-19T17:22:46.582Z,18.10
2018-05-19T17:25:14.779Z,17.10
2018-05-19T17:27:42.291Z,19.60
2018-05-19T17:30:10.201Z,17.80
2018-05-19T17:32:37.728Z,17.30
2018-05-19T17:35:05.696Z,16.80
2018-05-19T17:37:33.220Z,17.20
2018-05-19T17:40:01.499Z,17.90
2018-05-19T17:42:29.430Z,17.90
2018-05-19T17:44:57.798Z,17.90
2018-05-19T17:47:26.862Z,17.80
2018-05-19T17:49:54.757Z,18.00
2018-05-19T17:52:22.271Z,18.60
2018-05-19T17:54:51.311Z,17.80
2018-05-19T17:57:18.867Z,18.80
2018-05-19T17:59:46.393Z,18.10
2018-05-19T18:02:13.958Z,18.20
2018-05-19T18:04:41.884Z,17.70
2018-05-19T18:07:10.183Z,17.70
2018-05-19T18:09:39.211Z,17.60
2018-05-19T18:12:06.719Z,17.50
2018-05-19T18:14:34.277Z,18.20
2018-05-19T18:17:01.820Z,17.60
2018-05-19T18:19:30.765Z,17.40
2018-05-19T18:21:58.323Z,18.10
2018-05-19T18:24:26.624Z,17.00
2018-05-19T18:26:54.158Z,16.90
2018-05-19T18:29:21.817Z,16.50
2018-05-19T18:31:50.090Z,16.80
2018-05-19T18:34:18.159Z,16.10
2018-05-19T18:36:46.467Z,16.40
2018-05-19T18:39:15.112Z,16.30
2018-05-19T18:41:43.071Z,16.10
2018-05-19T18:44:11.383Z,16.10
2018-05-19T18:46:38.978Z,16.10
2018-05-19T18:49:06.518Z,16.00
2018-05-19T18:51:50.067Z,15.90
2018-05-19T18:54:17.605Z,14.80
2018-05-19T18:56:46.671Z,15.80
2018-05-19T18:59:15.876Z,15.80
2018-05-19T19:01:44.887Z,15.80
2018-05-19T19:04:13.301Z,14.00
2018-05-19T19:09:09.768Z,15.70
2018-05-19T19:11:37.730Z,15.70
2018-05-19T19:14:05.341Z,15.30
2018-05-19T19:16:33.361Z,15.00
2018-05-19T19:19:00.926Z,15.40
2018-05-19T19:21:28.498Z,16.00
2018-05-19T19:23:56.089Z,17.30
2018-05-19T19:26:24.045Z,15.80
2018-05-19T19:28:52.364Z,15.50
2018-05-19T19:31:20.682Z,15.50
2018-05-19T19:33:48.263Z,15.90
2018-05-19T19:36:15.798Z,15.10
2018-05-19T19:38:44.462Z,14.70
2018-05-19T19:41:12.792Z,15.30
2018-05-19T19:43:41.133Z,15.30
2018-05-19T19:46:09.804Z,15.40
2018-05-19T19:48:37.378Z,15.00
2018-05-19T19:51:04.910Z,15.40
2018-05-19T19:53:32.453Z,15.10
2018-05-19T19:55:59.984Z,15.20
2018-05-19T19:58:28.293Z,15.00
2018-05-19T20:00:57.021Z,14.90
2018-05-19T20:03:24.934Z,15.00
2018-05-19T20:05:53.253Z,14.80
2018-05-19T20:08:20.770Z,14.70
2018-05-19T20:10:48.717Z,15.30
2018-05-19T20:13:17.081Z,14.80
2018-05-19T20:15:44.602Z,14.70
2018-05-19T20:18:12.139Z,15.50
2018-05-19T20:20:39.712Z,15.70
2018-05-19T20:23:07.874Z,14.70
2018-05-19T20:25:36.266Z,14.60
2018-05-19T20:28:05.327Z,14.60
2018-05-19T20:30:33.665Z,14.40
2018-05-19T20:33:01.314Z,13.00
2018-05-19T20:35:29.269Z,14.40
2018-05-19T20:40:25.748Z,14.70
2018-05-19T20:42:53.332Z,14.00
2018-05-19T20:45:22.378Z,13.90
2018-05-19T20:47:50.676Z,13.80
2018-05-19T20:50:18.318Z,13.70
2018-05-19T20:52:46.696Z,13.10
2018-05-19T20:55:14.262Z,13.90
2018-05-19T20:57:42.589Z,14.10
2018-05-19T21:00:10.895Z,13.70
2018-05-19T21:02:38.821Z,13.00
2018-05-19T21:05:07.275Z,13.90
2018-05-19T21:07:34.838Z,13.60
2018-05-19T21:10:02.478Z,14.70
2018-05-19T21:12:31.567Z,13.80
2018-05-19T21:14:59.093Z,13.00
2018-05-19T21:17:27.068Z,14.10
2018-05-19T21:19:55.413Z,13.90
2018-05-19T21:22:22.928Z,12.20
2018-05-19T21:24:50.897Z,13.90
2018-05-19T21:27:18.415Z,14.10
2018-05-19T21:29:45.940Z,13.90
2018-05-19T21:32:13.864Z,13.70
2018-05-19T21:34:42.919Z,14.00
2018-05-19T21:37:10.444Z,14.30
2018-05-19T21:39:38.395Z,13.70
2018-05-19T21:42:06.301Z,13.80
2018-05-19T21:44:34.595Z,13.90
2018-05-19T21:47:02.116Z,12.50
2018-05-19T21:51:58.515Z,13.80
2018-05-19T21:54:26.800Z,13.80
2018-05-19T21:56:55.082Z,13.80
2018-05-19T21:59:23.368Z,13.70
2018-05-19T22:01:50.879Z,13.50
2018-05-19T22:04:18.403Z,14.00
2018-05-19T22:06:46.717Z,13.60
2018-05-19T22:09:14.985Z,13.60
2018-05-19T22:11:43.281Z,13.50
2018-05-19T22:14:10.823Z,13.00
2018-05-19T22:16:38.352Z,14.10
2018-05-19T22:19:06.635Z,13.50
2018-05-19T22:24:03.400Z,14.20
2018-05-19T22:26:30.951Z,13.60
2018-05-19T22:28:59.603Z,13.60
2018-05-19T22:31:27.123Z,14.20
2018-05-19T22:33:55.777Z,13.60
2018-05-19T22:36:24.042Z,13.60
2018-05-19T22:38:52.339Z,13.60
2018-05-19T22:41:19.861Z,13.80
2018-05-19T22:43:47.384Z,15.40
2018-05-19T22:46:15.661Z,13.70
2018-05-19T22:48:43.179Z,14.30
2018-05-19T22:51:11.451Z,13.50
2018-05-19T22:53:39.731Z,13.60
2018-05-19T22:56:08.780Z,13.50
2018-05-19T22:58:36.309Z,13.80
2018-05-19T23:01:03.832Z,13.00
2018-05-19T23:03:31.731Z,13.50
2018-05-19T23:05:59.637Z,13.50
2018-05-19T23:08:27.550Z,13.40
2018-05-19T23:10:55.830Z,13.40
2018-05-19T23:13:24.852Z,13.40
2018-05-19T23:15:52.374Z,13.60
2018-05-19T23:18:20.647Z,13.50
2018-05-19T23:20:48.613Z,12.30
2018-05-19T23:23:16.899Z,13.50
2018-05-19T23:25:45.192Z,13.40
2018-05-19T23:28:12.718Z,13.70
2018-05-19T23:30:41.377Z,13.50
2018-05-19T23:33:08.905Z,13.80
2018-05-19T23:35:36.424Z,13.60
2018-05-19T23:38:04.719Z,13.40
2018-05-19T23:40:32.986Z,13.40
2018-05-19T23:45:30.297Z,13.80
2018-05-19T23:47:57.808Z,12.70
2018-05-19T23:50:25.326Z,13.20
2018-05-19T23:52:53.214Z,13.50
2018-05-19T23:55:21.152Z,13.30
2018-05-19T23:57:49.434Z,13.30
